createdAt,value
2023-01-08T00:00:57.706Z,100.00
2023-01-08T00:03:24.703Z,100.00
2023-01-08T00:05:51.589Z,100.00
2023-01-08T00:08:17.993Z,100.00
2023-01-08T00:10:44.447Z,100.00
2023-01-08T00:13:10.915Z,100.00
2023-01-08T00:15:37.262Z,100.00
2023-01-08T00:18:06.662Z,100.00
2023-01-08T00:20:33.358Z,100.00
2023-01-08T00:22:59.705Z,100.00
2023-01-08T00:25:26.111Z,100.00
2023-01-08T00:27:52.654Z,100.00
2023-01-08T00:30:19.020Z,100.00
2023-01-08T00:32:45.448Z,100.00
2023-01-08T00:35:11.889Z,100.00
2023-01-08T00:37:38.282Z,100.00
2023-01-08T00:40:05.349Z,100.00
2023-01-08T00:42:31.784Z,100.00
2023-01-08T00:44:58.182Z,100.00
2023-01-08T00:47:24.667Z,100.00
2023-01-08T00:49:51.120Z,100.00
2023-01-08T00:52:17.523Z,100.00
2023-01-08T00:54:43.951Z,100.00
2023-01-08T00:57:10.361Z,100.00
2023-01-08T00:59:36.733Z,100.00
2023-01-08T01:02:03.318Z,100.00
2023-01-08T01:04:29.971Z,100.00
2023-01-08T01:06:56.448Z,100.00
2023-01-08T01:09:22.949Z,100.00
2023-01-08T01:11:49.380Z,100.00
2023-01-08T01:14:16.332Z,100.00
2023-01-08T01:16:43.723Z,100.00
2023-01-08T01:19:10.756Z,100.00
2023-01-08T01:21:37.356Z,100.00
2023-01-08T01:24:06.121Z,100.00
2023-01-08T01:26:34.184Z,100.00
2023-01-08T01:29:01.236Z,100.00
2023-01-08T01:31:30.072Z,100.00
2023-01-08T01:33:56.783Z,100.00
2023-01-08T01:36:25.133Z,100.00
2023-01-08T01:38:54.720Z,100.00
2023-01-08T01:41:30.789Z,100.00
2023-01-08T01:44:21.661Z,100.00
2023-01-08T01:46:48.735Z,100.00
2023-01-08T01:49:20.410Z,100.00
2023-01-08T01:51:50.993Z,100.00
2023-01-08T01:54:18.162Z,100.00
2023-01-08T01:56:46.219Z,100.00
2023-01-08T01:59:13.145Z,100.00
2023-01-08T02:01:42.421Z,100.00
2023-01-08T02:04:12.627Z,100.00
2023-01-08T02:06:49.058Z,100.00
2023-01-08T02:09:47.569Z,100.00
2023-01-08T02:12:17.987Z,100.00
2023-01-08T02:15:05.888Z,100.00
2023-01-08T02:17:44.312Z,100.00
2023-01-08T02:20:20.077Z,100.00
2023-01-08T02:22:57.393Z,100.00
2023-01-08T02:25:36.900Z,100.00
2023-01-08T02:28:06.199Z,100.00
2023-01-08T02:30:32.722Z,100.00
2023-01-08T02:32:59.105Z,100.00
2023-01-08T02:35:45.643Z,100.00
2023-01-08T02:38:15.320Z,100.00
2023-01-08T02:41:07.585Z,100.00
2023-01-08T02:43:56.965Z,100.00
2023-01-08T02:46:29.974Z,100.00
2023-01-08T02:49:06.602Z,100.00
2023-01-08T02:51:47.431Z,100.00
2023-01-08T02:54:19.675Z,100.00
2023-01-08T02:56:49.783Z,100.00
2023-01-08T02:59:18.941Z,100.00
2023-01-08T03:01:45.751Z,100.00
2023-01-08T03:04:21.580Z,100.00
2023-01-08T03:06:48.493Z,100.00
2023-01-08T03:09:16.641Z,100.00
2023-01-08T03:11:55.384Z,100.00
2023-01-08T03:14:44.749Z,100.00
2023-01-08T03:17:32.735Z,100.00
2023-01-08T03:20:09.089Z,100.00
2023-01-08T03:22:39.244Z,100.00
2023-01-08T03:25:07.711Z,100.00
2023-01-08T03:27:39.341Z,100.00
2023-01-08T03:30:09.126Z,100.00
2023-01-08T03:32:39.181Z,100.00
2023-01-08T03:35:10.559Z,100.00
2023-01-08T03:37:40.849Z,100.00
2023-01-08T03:40:13.359Z,100.00
2023-01-08T03:42:40.040Z,100.00
2023-01-08T03:45:07.085Z,100.00
2023-01-08T03:47:35.163Z,100.00
2023-01-08T03:50:04.005Z,100.00
2023-01-08T03:52:32.899Z,100.00
2023-01-08T03:54:59.675Z,100.00
2023-01-08T03:57:26.147Z,100.00
2023-01-08T03:59:52.611Z,100.00
2023-01-08T04:02:19.691Z,100.00
2023-01-08T04:04:46.537Z,100.00
2023-01-08T04:07:13.360Z,100.00
2023-01-08T04:09:39.955Z,100.00
2023-01-08T04:12:06.741Z,100.00
2023-01-08T04:14:33.137Z,100.00
2023-01-08T04:16:59.575Z,100.00
2023-01-08T04:19:25.961Z,100.00
2023-01-08T04:21:53.456Z,100.00
2023-01-08T04:24:20.223Z,100.00
2023-01-08T04:26:46.674Z,100.00
2023-01-08T04:29:14.217Z,100.00
2023-01-08T04:31:40.640Z,100.00
2023-01-08T04:34:06.998Z,100.00
2023-01-08T04:36:34.162Z,100.00
2023-01-08T04:39:00.535Z,100.00
2023-01-08T04:41:26.929Z,100.00
2023-01-08T04:43:53.335Z,100.00
2023-01-08T04:46:19.712Z,100.00
2023-01-08T04:48:46.136Z,100.00
2023-01-08T04:51:12.574Z,100.00
2023-01-08T04:53:41.205Z,100.00
2023-01-08T04:56:10.850Z,100.00
2023-01-08T04:58:38.208Z,100.00
2023-01-08T05:01:19.384Z,100.00
2023-01-08T05:03:46.112Z,100.00
2023-01-08T05:06:12.576Z,100.00
2023-01-08T05:08:39.032Z,100.00
2023-01-08T05:11:05.413Z,100.00
2023-01-08T05:13:31.817Z,100.00
2023-01-08T05:16:00.433Z,100.00
2023-01-08T05:18:27.941Z,100.00
2023-01-08T05:20:54.415Z,100.00
2023-01-08T05:23:21.066Z,100.00
2023-01-08T05:25:47.463Z,100.00
2023-01-08T05:28:13.840Z,100.00
2023-01-08T05:30:40.239Z,100.00
2023-01-08T05:33:06.655Z,100.00
2023-01-08T05:35:33.090Z,100.00
2023-01-08T05:37:59.951Z,100.00
2023-01-08T05:40:26.621Z,100.00
2023-01-08T05:42:53.063Z,100.00
2023-01-08T05:45:19.630Z,100.00
2023-01-08T05:47:46.037Z,100.00
2023-01-08T05:50:12.477Z,100.00
2023-01-08T05:52:38.908Z,100.00
2023-01-08T05:55:05.727Z,100.00
2023-01-08T05:57:32.089Z,100.00
2023-01-08T05:59:58.462Z,100.00
2023-01-08T06:02:24.903Z,100.00
2023-01-08T06:04:51.368Z,100.00
2023-01-08T06:07:17.830Z,100.00
2023-01-08T06:09:44.194Z,100.00
2023-01-08T06:12:10.540Z,100.00
2023-01-08T06:14:36.942Z,100.00
2023-01-08T06:17:03.388Z,100.00
2023-01-08T06:19:29.739Z,100.00
2023-01-08T06:21:56.638Z,100.00
2023-01-08T06:24:22.975Z,100.00
2023-01-08T06:26:49.337Z,100.00
2023-01-08T06:29:15.758Z,100.00
2023-01-08T06:31:42.253Z,100.00
2023-01-08T06:34:08.688Z,100.00
2023-01-08T06:36:35.074Z,100.00
2023-01-08T06:39:01.451Z,100.00
2023-01-08T06:41:27.875Z,100.00
2023-01-08T06:43:54.339Z,100.00
2023-01-08T06:46:20.746Z,100.00
2023-01-08T06:48:47.104Z,100.00
2023-01-08T06:51:13.493Z,100.00
2023-01-08T06:53:39.884Z,100.00
2023-01-08T06:56:09.315Z,100.00
2023-01-08T06:58:36.756Z,100.00
2023-01-08T07:01:03.302Z,100.00
2023-01-08T07:03:29.715Z,100.00
2023-01-08T07:05:56.561Z,100.00
2023-01-08T07:08:23.342Z,100.00
2023-01-08T07:10:49.892Z,100.00
2023-01-08T07:13:16.329Z,100.00
2023-01-08T07:15:43.226Z,100.00
2023-01-08T07:18:11.766Z,100.00
2023-01-08T07:20:38.681Z,100.00
2023-01-08T07:23:07.770Z,100.00
2023-01-08T07:25:34.192Z,100.00
2023-01-08T07:28:00.836Z,100.00
2023-01-08T07:30:30.305Z,100.00
2023-01-08T07:33:03.355Z,100.00
2023-01-08T07:35:30.180Z,100.00
2023-01-08T07:37:56.728Z,100.00
2023-01-08T07:40:23.733Z,100.00
2023-01-08T07:43:01.367Z,100.00
2023-01-08T07:45:28.892Z,100.00
2023-01-08T07:47:58.675Z,100.00
2023-01-08T07:50:26.140Z,100.00
2023-01-08T07:52:52.672Z,100.00
2023-01-08T07:55:19.062Z,100.00
2023-01-08T07:57:45.500Z,100.00
2023-01-08T08:00:12.260Z,100.00
2023-01-08T08:02:38.863Z,100.00
2023-01-08T08:05:05.560Z,100.00
2023-01-08T08:07:32.099Z,100.00
2023-01-08T08:09:58.669Z,100.00
2023-01-08T08:12:25.151Z,100.00
2023-01-08T08:14:51.946Z,100.00
2023-01-08T08:17:18.475Z,100.00
2023-01-08T08:19:45.553Z,100.00
2023-01-08T08:22:13.393Z,100.00
2023-01-08T08:24:40.095Z,100.00
2023-01-08T08:27:06.578Z,100.00
2023-01-08T08:29:33.030Z,100.00
2023-01-08T08:31:59.525Z,100.00
2023-01-08T08:34:25.997Z,100.00
2023-01-08T08:36:52.386Z,100.00
2023-01-08T08:39:18.815Z,100.00
2023-01-08T08:41:45.225Z,100.00
2023-01-08T08:44:11.698Z,100.00
2023-01-08T08:46:38.114Z,100.00
2023-01-08T08:49:04.571Z,100.00
2023-01-08T08:51:30.973Z,100.00
2023-01-08T08:53:57.350Z,100.00
2023-01-08T08:56:23.715Z,100.00
2023-01-08T08:58:51.856Z,100.00
2023-01-08T09:01:18.395Z,100.00
2023-01-08T09:03:44.884Z,100.00
2023-01-08T09:06:15.198Z,100.00
2023-01-08T09:08:41.731Z,100.00
2023-01-08T09:11:08.205Z,100.00
2023-01-08T09:13:36.985Z,100.00
2023-01-08T09:16:03.953Z,100.00
2023-01-08T09:18:30.375Z,100.00
2023-01-08T09:20:56.720Z,100.00
2023-01-08T09:23:23.077Z,100.00
2023-01-08T09:25:49.576Z,100.00
2023-01-08T09:28:17.216Z,100.00
2023-01-08T09:30:43.577Z,100.00
2023-01-08T09:33:10.350Z,100.00
2023-01-08T09:35:36.735Z,100.00
2023-01-08T09:38:03.279Z,100.00
2023-01-08T09:40:37.840Z,100.00
2023-01-08T09:43:06.070Z,100.00
2023-01-08T09:45:35.575Z,100.00
2023-01-08T09:48:06.079Z,100.00
2023-01-08T09:50:33.908Z,100.00
2023-01-08T09:53:00.534Z,100.00
2023-01-08T09:55:29.537Z,100.00
2023-01-08T09:57:56.533Z,100.00
2023-01-08T10:00:30.793Z,100.00
2023-01-08T10:02:58.126Z,100.00
2023-01-08T10:05:26.816Z,100.00
2023-01-08T10:07:53.278Z,100.00
2023-01-08T10:10:27.563Z,100.00
2023-01-08T10:12:55.220Z,100.00
2023-01-08T10:15:22.660Z,100.00
2023-01-08T10:17:55.887Z,100.00
2023-01-08T10:20:24.710Z,100.00
2023-01-08T10:22:56.434Z,98.67
2023-01-08T10:25:25.449Z,99.03
2023-01-08T10:28:03.048Z,99.52
2023-01-08T10:30:36.817Z,99.59
2023-01-08T10:33:12.742Z,99.52
2023-01-08T10:35:41.877Z,99.17
2023-01-08T10:38:25.649Z,97.77
2023-01-08T10:40:52.434Z,96.89
2023-01-08T10:43:22.751Z,96.99
2023-01-08T10:46:04.670Z,96.54
2023-01-08T10:48:34.783Z,95.07
2023-01-08T10:51:23.671Z,95.01
2023-01-08T10:53:51.435Z,95.35
2023-01-08T10:56:26.995Z,94.44
2023-01-08T10:58:53.918Z,93.67
2023-01-08T11:01:25.137Z,94.78
2023-01-08T11:03:54.220Z,95.12
2023-01-08T11:06:23.773Z,92.39
2023-01-08T11:08:52.926Z,91.60
2023-01-08T11:11:20.084Z,92.00
2023-01-08T11:14:00.949Z,91.42
2023-01-08T11:16:39.957Z,91.65
2023-01-08T11:19:17.804Z,92.56
2023-01-08T11:21:55.215Z,91.46
2023-01-08T11:24:44.989Z,90.54
2023-01-08T11:27:16.780Z,90.66
2023-01-08T11:30:04.614Z,91.31
2023-01-08T11:32:50.655Z,92.86
2023-01-08T11:35:25.376Z,92.70
2023-01-08T11:38:01.757Z,93.18
2023-01-08T11:40:31.184Z,93.30
2023-01-08T11:43:11.961Z,92.91
2023-01-08T11:45:41.198Z,91.85
2023-01-08T11:48:14.680Z,91.45
2023-01-08T11:50:54.374Z,89.88
2023-01-08T11:53:35.425Z,89.91
2023-01-08T11:56:11.848Z,89.60
2023-01-08T11:59:16.394Z,87.58
2023-01-08T12:02:04.984Z,87.79
2023-01-08T12:04:45.496Z,88.63
2023-01-08T12:07:37.028Z,86.75
2023-01-08T12:10:11.213Z,86.47
2023-01-08T12:12:47.827Z,86.94
2023-01-08T12:15:18.397Z,85.25
2023-01-08T12:18:26.899Z,84.81
2023-01-08T12:21:28.618Z,84.62
2023-01-08T12:24:32.386Z,85.11
2023-01-08T12:27:20.488Z,86.07
2023-01-08T12:30:07.038Z,84.38
2023-01-08T12:32:48.823Z,85.11
2023-01-08T12:35:47.694Z,84.86
2023-01-08T12:38:30.856Z,85.95
2023-01-08T12:41:01.551Z,81.98
2023-01-08T12:43:36.586Z,81.78
2023-01-08T12:46:05.564Z,80.10
2023-01-08T12:48:37.969Z,81.57
2023-01-08T12:51:23.039Z,83.86
2023-01-08T12:54:24.141Z,84.94
2023-01-08T12:56:53.764Z,86.40
2023-01-08T12:59:50.408Z,84.62
2023-01-08T13:02:49.614Z,83.89
2023-01-08T13:05:18.790Z,85.43
2023-01-08T13:07:47.652Z,84.24
2023-01-08T13:10:34.749Z,77.95
2023-01-08T13:13:02.110Z,79.08
2023-01-08T13:15:31.810Z,82.60
2023-01-08T13:18:15.361Z,83.57
2023-01-08T13:20:42.143Z,85.85
2023-01-08T13:23:24.629Z,86.60
2023-01-08T13:25:56.140Z,87.40
2023-01-08T13:28:31.576Z,87.88
2023-01-08T13:31:09.070Z,88.44
2023-01-08T13:33:35.392Z,87.53
2023-01-08T13:36:24.784Z,87.78
2023-01-08T13:39:25.760Z,88.21
2023-01-08T13:42:11.144Z,88.31
2023-01-08T13:44:47.617Z,88.11
2023-01-08T13:47:22.265Z,87.88
2023-01-08T13:49:53.061Z,88.53
2023-01-08T13:52:42.849Z,89.31
2023-01-08T13:55:17.226Z,89.19
2023-01-08T13:57:48.385Z,90.02
2023-01-08T14:00:23.701Z,90.44
2023-01-08T14:02:50.772Z,90.42
2023-01-08T14:05:27.708Z,90.63
2023-01-08T14:07:55.000Z,90.36
2023-01-08T14:10:22.234Z,90.76
2023-01-08T14:12:49.006Z,91.14
2023-01-08T14:15:29.142Z,91.62
2023-01-08T14:17:57.277Z,90.84
2023-01-08T14:20:44.739Z,91.78
2023-01-08T14:23:47.185Z,91.95
2023-01-08T14:26:36.151Z,91.38
2023-01-08T14:29:12.063Z,91.85
2023-01-08T14:31:49.443Z,92.12
2023-01-08T14:34:16.570Z,91.88
2023-01-08T14:36:43.766Z,92.21
2023-01-08T14:39:12.514Z,92.82
2023-01-08T14:42:00.694Z,93.50
2023-01-08T14:44:36.510Z,94.10
2023-01-08T14:47:05.793Z,93.97
2023-01-08T14:49:40.683Z,93.53
2023-01-08T14:52:11.736Z,93.65
2023-01-08T14:54:38.579Z,93.31
2023-01-08T14:57:05.401Z,93.15
2023-01-08T14:59:37.753Z,93.27
2023-01-08T15:02:07.920Z,93.79
2023-01-08T15:04:34.436Z,94.19
2023-01-08T15:10:57.878Z,94.46
2023-01-08T15:13:29.758Z,94.98
2023-01-08T15:15:59.240Z,95.34
2023-01-08T15:18:26.114Z,95.76
2023-01-08T15:20:54.387Z,95.92
2023-01-08T15:23:27.229Z,96.40
2023-01-08T15:25:55.563Z,96.35
2023-01-08T15:28:22.220Z,96.40
2023-01-08T15:30:49.331Z,97.22
2023-01-08T15:33:24.211Z,98.06
2023-01-08T15:35:51.138Z,99.17
2023-01-08T15:38:20.633Z,98.90
2023-01-08T15:40:48.087Z,99.02
2023-01-08T15:43:17.755Z,98.88
2023-01-08T15:45:46.743Z,98.58
2023-01-08T15:48:13.715Z,98.37
2023-01-08T15:50:42.695Z,98.34
2023-01-08T15:53:16.317Z,98.45
2023-01-08T15:55:43.667Z,99.08
2023-01-08T15:58:12.336Z,98.91
2023-01-08T16:00:39.850Z,99.24
2023-01-08T16:03:07.469Z,99.87
2023-01-08T16:05:35.202Z,99.67
2023-01-08T16:08:01.707Z,99.23
2023-01-08T16:10:29.061Z,98.90
2023-01-08T16:12:55.487Z,99.07
2023-01-08T16:15:22.734Z,99.15
2023-01-08T16:17:49.119Z,99.76
2023-01-08T16:20:16.920Z,100.00
2023-01-08T16:22:43.748Z,100.00
2023-01-08T16:25:10.665Z,100.00
2023-01-08T16:27:38.366Z,100.00
2023-01-08T16:30:07.051Z,100.00
2023-01-08T16:32:33.439Z,100.00
2023-01-08T16:34:59.867Z,100.00
2023-01-08T16:37:26.319Z,100.00
2023-01-08T16:39:52.690Z,100.00
2023-01-08T16:42:19.076Z,100.00
2023-01-08T16:44:45.502Z,100.00
2023-01-08T16:47:11.899Z,100.00
2023-01-08T16:49:39.769Z,100.00
2023-01-08T16:52:09.187Z,100.00
2023-01-08T16:54:35.731Z,100.00
2023-01-08T16:57:02.110Z,100.00
2023-01-08T16:59:28.700Z,100.00
2023-01-08T17:01:55.468Z,100.00
2023-01-08T17:04:21.931Z,100.00
2023-01-08T17:06:48.367Z,100.00
2023-01-08T17:09:14.977Z,100.00
2023-01-08T17:11:41.862Z,100.00
2023-01-08T17:14:09.129Z,100.00
2023-01-08T17:16:35.603Z,100.00
2023-01-08T17:19:02.102Z,100.00
2023-01-08T17:21:28.569Z,100.00
2023-01-08T17:23:54.985Z,100.00
2023-01-08T17:26:21.443Z,100.00
2023-01-08T17:28:47.805Z,100.00
2023-01-08T17:31:20.220Z,100.00
2023-01-08T17:33:51.356Z,100.00
2023-01-08T17:36:26.440Z,100.00
2023-01-08T17:38:54.458Z,100.00
2023-01-08T17:41:40.826Z,100.00
2023-01-08T17:44:10.273Z,100.00
2023-01-08T17:46:42.067Z,100.00
2023-01-08T17:49:11.043Z,100.00
2023-01-08T17:51:38.489Z,99.85
2023-01-08T17:54:05.034Z,100.00
2023-01-08T17:56:31.470Z,99.36
2023-01-08T17:58:57.870Z,99.75
2023-01-08T18:01:24.370Z,99.01
2023-01-08T18:03:50.791Z,98.44
2023-01-08T18:06:17.131Z,98.63
2023-01-08T18:08:43.526Z,98.40
2023-01-08T18:11:10.292Z,99.10
2023-01-08T18:13:37.594Z,99.55
2023-01-08T18:16:04.696Z,99.39
2023-01-08T18:18:31.316Z,99.57
2023-01-08T18:20:57.814Z,100.00
2023-01-08T18:23:24.704Z,100.00
2023-01-08T18:25:51.276Z,100.00
2023-01-08T18:28:17.776Z,100.00
2023-01-08T18:30:45.763Z,100.00
2023-01-08T18:33:13.299Z,99.98
2023-01-08T18:35:40.393Z,99.97
2023-01-08T18:38:09.841Z,100.00
2023-01-08T18:40:36.558Z,100.00
2023-01-08T18:43:03.009Z,100.00
2023-01-08T18:45:35.064Z,99.75
2023-01-08T18:48:02.642Z,99.84
2023-01-08T18:50:29.062Z,99.60
2023-01-08T18:52:55.490Z,99.36
2023-01-08T18:55:22.001Z,99.75
2023-01-08T18:57:49.650Z,99.88
2023-01-08T19:00:16.210Z,100.00
2023-01-08T19:02:43.498Z,100.00
2023-01-08T19:05:10.373Z,100.00
2023-01-08T19:07:36.823Z,100.00
2023-01-08T19:10:03.667Z,100.00
2023-01-08T19:12:32.236Z,100.00
2023-01-08T19:14:58.961Z,100.00
2023-01-08T19:17:25.479Z,100.00
2023-01-08T19:19:51.903Z,100.00
2023-01-08T19:22:18.335Z,100.00
2023-01-08T19:24:44.715Z,100.00
2023-01-08T19:27:11.079Z,100.00
2023-01-08T19:29:37.564Z,100.00
2023-01-08T19:32:04.330Z,100.00
2023-01-08T19:34:30.661Z,100.00
2023-01-08T19:36:57.452Z,100.00
2023-01-08T19:39:23.912Z,100.00
2023-01-08T19:42:10.805Z,100.00
2023-01-08T19:44:38.485Z,100.00
2023-01-08T19:47:04.902Z,100.00
2023-01-08T19:49:31.390Z,100.00
2023-01-08T19:51:57.829Z,100.00
2023-01-08T19:54:25.864Z,100.00
2023-01-08T19:56:53.475Z,100.00
2023-01-08T19:59:19.929Z,100.00
2023-01-08T20:01:46.997Z,100.00
2023-01-08T20:04:13.812Z,100.00
2023-01-08T20:06:40.363Z,100.00
2023-01-08T20:09:08.992Z,100.00
2023-01-08T20:11:35.521Z,100.00
2023-01-08T20:14:05.201Z,100.00
2023-01-08T20:16:32.253Z,100.00
2023-01-08T20:19:04.454Z,100.00
2023-01-08T20:21:34.460Z,100.00
2023-01-08T20:24:04.657Z,100.00
2023-01-08T20:26:35.940Z,100.00
2023-01-08T20:29:02.652Z,100.00
2023-01-08T20:31:30.618Z,100.00
2023-01-08T20:33:58.893Z,100.00
2023-01-08T20:36:27.975Z,100.00
2023-01-08T20:39:00.761Z,100.00
2023-01-08T20:41:28.182Z,100.00
2023-01-08T20:43:58.242Z,100.00
2023-01-08T20:46:29.532Z,100.00
2023-01-08T20:48:59.613Z,100.00
2023-01-08T20:51:26.250Z,100.00
2023-01-08T20:53:52.669Z,100.00
2023-01-08T20:56:19.053Z,100.00
2023-01-08T20:58:48.140Z,100.00
2023-01-08T21:01:22.730Z,100.00
2023-01-08T21:03:49.916Z,100.00
2023-01-08T21:06:19.069Z,100.00
2023-01-08T21:08:47.854Z,100.00
2023-01-08T21:11:14.850Z,100.00
2023-01-08T21:13:41.791Z,100.00
2023-01-08T21:16:22.048Z,100.00
2023-01-08T21:18:49.559Z,100.00
2023-01-08T21:21:21.273Z,100.00
2023-01-08T21:23:48.269Z,100.00
2023-01-08T21:26:16.159Z,100.00
2023-01-08T21:28:43.502Z,100.00
2023-01-08T21:31:11.535Z,100.00
2023-01-08T21:33:38.651Z,100.00
2023-01-08T21:36:08.164Z,100.00
2023-01-08T21:38:35.475Z,100.00
2023-01-08T21:41:03.920Z,100.00
2023-01-08T21:43:49.402Z,100.00
2023-01-08T21:46:16.729Z,100.00
2023-01-08T21:48:44.095Z,100.00
2023-01-08T21:51:30.430Z,100.00
2023-01-08T21:53:56.841Z,100.00
2023-01-08T21:56:23.290Z,100.00
2023-01-08T21:58:49.679Z,100.00
2023-01-08T22:01:16.108Z,100.00
2023-01-08T22:03:42.757Z,100.00
2023-01-08T22:06:09.242Z,100.00
2023-01-08T22:08:35.920Z,100.00
2023-01-08T22:11:07.237Z,100.00
2023-01-08T22:13:33.727Z,100.00
2023-01-08T22:16:02.678Z,100.00
2023-01-08T22:18:29.225Z,100.00
2023-01-08T22:21:04.066Z,100.00
2023-01-08T22:23:30.605Z,100.00
2023-01-08T22:25:57.485Z,100.00
2023-01-08T22:28:25.333Z,100.00
2023-01-08T22:30:52.437Z,100.00
2023-01-08T22:33:18.855Z,100.00
2023-01-08T22:35:45.646Z,100.00
2023-01-08T22:38:12.142Z,100.00
2023-01-08T22:40:39.026Z,100.00
2023-01-08T22:43:05.695Z,100.00
2023-01-08T22:45:32.155Z,100.00
2023-01-08T22:47:58.577Z,100.00
2023-01-08T22:50:25.379Z,100.00
2023-01-08T22:52:51.745Z,100.00
2023-01-08T22:55:18.228Z,100.00
2023-01-08T22:57:44.693Z,100.00
2023-01-08T23:00:11.813Z,100.00
2023-01-08T23:02:38.318Z,100.00
2023-01-08T23:05:05.405Z,100.00
2023-01-08T23:07:31.944Z,100.00
2023-01-08T23:09:58.303Z,100.00
2023-01-08T23:12:25.490Z,100.00
2023-01-08T23:14:52.080Z,100.00
2023-01-08T23:17:18.488Z,100.00
2023-01-08T23:19:44.996Z,100.00
2023-01-08T23:22:11.441Z,100.00
2023-01-08T23:24:37.791Z,100.00
2023-01-08T23:27:04.239Z,100.00
2023-01-08T23:29:32.025Z,100.00
2023-01-08T23:31:58.546Z,100.00
2023-01-08T23:34:25.199Z,100.00
2023-01-08T23:36:52.124Z,100.00
2023-01-08T23:39:18.483Z,100.00
2023-01-08T23:41:44.874Z,100.00
2023-01-08T23:44:14.423Z,100.00
2023-01-08T23:46:41.029Z,100.00
2023-01-08T23:49:07.610Z,100.00
2023-01-08T23:51:34.156Z,100.00
2023-01-08T23:54:00.592Z,100.00
2023-01-08T23:56:27.490Z,100.00
2023-01-08T23:58:54.255Z,100.00
